LTBJ Airport Information

Runway Information
Runway 16L Length 10630 ft width 147 ft
Elevation 412 ft Threshold 0 ft Heading 167
Runway 34R Length 10630 ft Width 147 ft
Elevation 364 ft Threshold 0 ft Heading 347
Runway 16R Length 10630 ft width 147 ft
Elevation 409 ft Threshold 0 ft Heading 167
Runway 34L Length 10630 ft Width 147 ft
Elevation 366 ft Threshold 0 ft Heading 347
Airport Frequencies
Type APP Name MENDERES A Frequency 119.5 MHZ
Type APP Name MENDERES A Frequency 134.2 MHZ
Type ATIS Name MENDERES A Frequency 129.2 MHZ
Type GND Name MENDERES G Frequency 121.9 MHZ
Type RMP Name MENDERES R Frequency 121.7 MHZ
Type TWR Name MENDERES T Frequency 118.1 MHZ
Airport Navaids
Type NDB Name Menderes Frequency 315 KHZ
Type NDB Name Menderes Frequency 405 KHZ
Type TACAN Name Menderes Frequency 115100 KHZ
Type VOR-DME Name Menderes Frequency 117900 KHZ
Airport Weather Information & NOTAM
ADDS - METARS form results

(2007 UTC 22 July 2018)
 
METAR text: LTBJ 221950Z 24003KT CAVOK 27/12 Q1008 NOSIG RMK RWY16 12003KT 080V140
Conditions at: LTBJ (IZMIR/ADNAN MEND, TR) observed 1950 UTC 22 July 2018
Temperature: 27.0°C (81°F)
Dewpoint: 12.0°C (54°F) [RH = 39%]
Pressure (altimeter): 29.76 inches Hg (1008.0 mb)
Winds: from the WSW (240 degrees) at 3 MPH (3 knots; 1.6 m/s)
Visibility: 6 or more miles (10+ km)
Ceiling: ceiling and visibility are OK
Clouds: unknown
Weather: no significant weather observed at this time

METAR text: LTBJ 221920Z VRB01KT CAVOK 28/15 Q1008 NOSIG RMK RWY16 VRB02KT
Conditions at: LTBJ (IZMIR/ADNAN MEND, TR) observed 1920 UTC 22 July 2018
Temperature: 28.0°C (82°F)
Dewpoint: 15.0°C (59°F) [RH = 45%]
Pressure (altimeter): 29.76 inches Hg (1008.0 mb)
Winds: variable direction winds at 1 MPH (1 knots; 0.5 m/s)
Visibility: 6 or more miles (10+ km)
Ceiling: ceiling and visibility are OK
Clouds: unknown
Weather: no significant weather observed at this time